Time;durP1;ratioP1;P1;durP2;ratioP2;P2;SDS_P1;SDS_P2;PMS_P1;PMS_P2;Temp;Humidity;BMP_temperature;BMP_pressure;BME280_temperature;BME280_humidity;BME280_pressure;Samples;Min_cycle;Max_cycle;Signal;HPM_P1;HPM_P2
2023/03/20 00:00:56;;;;;;;;;;;;;;;11.72;47.30;99222.38;5034736;28;20031;-74
2023/03/20 00:03:22;;;;;;;;;;;;;;;11.69;47.41;99220.00;5081515;28;19920;-76
2023/03/20 00:05:48;;;;;;;;;;;;;;;11.67;47.54;99226.28;5092235;28;19916;-75
2023/03/20 00:08:13;;;;;;;;;;;;;;;11.65;47.41;99220.34;5093492;28;20298;-75
2023/03/20 00:10:39;;;;;;;;;;;;;;;11.63;47.51;99228.28;5091953;28;19920;-74
2023/03/20 00:13:05;;;;;;;;;;;;;;;11.62;47.62;99225.78;5075064;28;20313;-75
2023/03/20 00:15:37;;;;;;;;;;;;;;;11.59;47.71;99226.81;5092110;28;19923;-75
2023/03/20 00:18:02;;;;;;;;;;;;;;;11.57;47.69;99226.97;5092146;28;19922;-76
2023/03/20 00:20:28;;;;;;;;;;;;;;;11.55;47.90;99222.78;5091055;28;20010;-75
2023/03/20 00:22:53;;;;;;;;;;;;;;;11.55;48.06;99218.38;5074940;28;19969;-76
2023/03/20 00:25:20;;;;;;;;;;;;;;;11.53;47.71;99212.44;5075410;28;19916;-76
2023/03/20 00:27:45;;;;;;;;;;;;;;;11.53;47.83;99219.47;5091458;28;19953;-76
2023/03/20 00:30:28;;;;;;;;;;;;;;;11.50;47.92;99219.69;5074337;28;19916;-75
2023/03/20 00:32:53;;;;;;;;;;;;;;;11.47;48.19;99220.72;5091813;28;19916;-76
2023/03/20 00:35:20;;;;;;;;;;;;;;;11.46;48.30;99216.44;5074409;28;19973;-76
2023/03/20 00:37:45;;;;;;;;;;;;;;;11.43;48.12;99215.81;5091291;28;19996;-76
2023/03/20 00:40:11;;;;;;;;;;;;;;;11.40;48.13;99222.94;5074714;28;19916;-76
2023/03/20 00:42:36;;;;;;;;;;;;;;;11.38;48.21;99213.53;5093150;28;19916;-76
2023/03/20 00:45:01;;;;;;;;;;;;;;;11.36;48.27;99213.66;5074736;28;19923;-75
2023/03/20 00:47:27;;;;;;;;;;;;;;;11.36;48.41;99213.66;5093364;28;19916;-76
2023/03/20 00:49:53;;;;;;;;;;;;;;;11.34;48.23;99204.28;5092807;28;19916;-76
2023/03/20 00:52:18;;;;;;;;;;;;;;;11.32;48.21;99195.69;5091349;28;19916;-76
2023/03/20 00:54:44;;;;;;;;;;;;;;;11.30;48.39;99197.59;5091459;28;20402;-76
2023/03/20 00:57:18;;;;;;;;;;;;;;;11.29;48.20;99193.28;5091290;28;19916;-76
2023/03/20 00:59:49;;;;;;;;;;;;;;;11.26;48.09;99183.06;5092644;28;19916;-76
2023/03/20 01:02:15;;;;;;;;;;;;;;;11.22;48.27;99188.50;5074161;28;19920;-76
2023/03/20 01:04:41;;;;;;;;;;;;;;;11.21;48.18;99188.59;5091429;28;19939;-76
2023/03/20 01:07:06;;;;;;;;;;;;;;;11.18;48.37;99179.22;5074434;28;19916;-76
2023/03/20 01:09:32;;;;;;;;;;;;;;;11.18;48.20;99175.75;5074931;28;19973;-76
2023/03/20 01:11:57;;;;;;;;;;;;;;;11.16;48.43;99182.88;5081822;28;20322;-76
2023/03/20 01:14:23;;;;;;;;;;;;;;;11.12;48.39;99171.81;5070846;28;19916;-76
2023/03/20 01:16:48;;;;;;;;;;;;;;;11.10;48.53;99170.25;5054325;28;19969;-76
2023/03/20 01:19:14;;;;;;;;;;;;;;;11.09;48.47;99164.22;5072163;28;20273;-76
2023/03/20 01:21:40;;;;;;;;;;;;;;;11.09;48.49;99166.00;5053857;28;20354;-76
2023/03/20 01:24:05;;;;;;;;;;;;;;;11.07;48.47;99165.25;5072371;28;19916;-76
2023/03/20 01:26:32;;;;;;;;;;;;;;;11.04;48.46;99164.53;5072293;28;19960;-76
2023/03/20 01:28:58;;;;;;;;;;;;;;;11.01;48.59;99162.13;5071179;28;20315;-76
2023/03/20 01:31:23;;;;;;;;;;;;;;;10.99;48.57;99173.63;5070902;28;20430;-76
2023/03/20 01:33:48;;;;;;;;;;;;;;;10.99;48.48;99158.81;5054050;28;19917;-76
2023/03/20 01:36:14;;;;;;;;;;;;;;;10.97;48.38;99163.28;5071419;28;19916;-76
2023/03/20 01:38:39;;;;;;;;;;;;;;;10.95;48.67;99159.13;5071089;28;19923;-76
2023/03/20 01:41:05;;;;;;;;;;;;;;;10.93;48.59;99159.25;5054667;28;19924;-76
2023/03/20 01:43:31;;;;;;;;;;;;;;;10.90;48.61;99161.25;5054177;28;19924;-76
2023/03/20 01:45:56;;;;;;;;;;;;;;;10.89;48.58;99164.78;5068195;28;19916;-76
2023/03/20 01:48:22;;;;;;;;;;;;;;;10.88;48.65;99157.88;5050686;28;19979;-77
2023/03/20 01:50:47;;;;;;;;;;;;;;;10.85;48.66;99161.56;5033167;28;19917;-76
2023/03/20 01:53:19;;;;;;;;;;;;;;;10.84;48.44;99159.91;5033968;28;19917;-76
2023/03/20 01:55:44;;;;;;;;;;;;;;;10.82;48.59;99160.00;5051848;28;19967;-76
2023/03/20 01:58:12;;;;;;;;;;;;;;;10.80;48.64;99159.28;5050171;28;19917;-76
2023/03/20 02:00:37;;;;;;;;;;;;;;;10.78;48.61;99153.31;5051436;28;19921;-76
2023/03/20 02:03:03;;;;;;;;;;;;;;;10.77;48.63;99158.63;5034244;28;20361;-75
2023/03/20 02:05:28;;;;;;;;;;;;;;;10.75;48.66;99157.91;5051017;28;19956;-75
2023/03/20 02:08:04;;;;;;;;;;;;;;;10.72;48.60;99161.59;5051985;28;19928;-75
2023/03/20 02:10:30;;;;;;;;;;;;;;;10.70;48.59;99163.47;5050881;28;19940;-76
2023/03/20 02:12:55;;;;;;;;;;;;;;;10.70;48.68;99162.66;5050711;28;20295;-75
2023/03/20 02:15:20;;;;;;;;;;;;;;;10.68;48.86;99160.13;5050688;28;19917;-75
2023/03/20 02:17:45;;;;;;;;;;;;;;;10.66;48.92;99165.47;5050591;28;19924;-75
2023/03/20 02:20:40;;;;;;;;;;;;;;;10.65;48.64;99171.63;5050318;28;19920;-75
2023/03/20 02:23:05;;;;;;;;;;;;;;;10.63;48.65;99167.47;4991737;28;19957;-75
2023/03/20 02:25:39;;;;;;;;;;;;;;;10.59;48.87;99164.22;4977087;28;19972;-75
2023/03/20 02:28:23;;;;;;;;;;;;;;;10.58;48.95;99166.94;4992964;28;19980;-75
2023/03/20 02:31:06;;;;;;;;;;;;;;;10.54;48.68;99163.69;4994169;28;19969;-75
2023/03/20 02:33:47;;;;;;;;;;;;;;;10.52;48.66;99167.38;4993947;28;19944;-75
2023/03/20 02:36:14;;;;;;;;;;;;;;;10.48;48.77;99159.75;4993664;28;20025;-75
2023/03/20 02:38:45;;;;;;;;;;;;;;;10.48;48.74;99158.91;4994055;28;20413;-75
2023/03/20 02:41:16;;;;;;;;;;;;;;;10.45;48.81;99161.72;4977518;28;19918;-75
2023/03/20 02:43:42;;;;;;;;;;;;;;;10.44;48.75;99157.47;4993790;28;19972;-75
2023/03/20 02:46:12;;;;;;;;;;;;;;;10.43;48.71;99155.78;4977431;28;19921;-75
2023/03/20 02:48:54;;;;;;;;;;;;;;;10.42;48.79;99159.31;4977627;28;19918;-75
2023/03/20 02:51:35;;;;;;;;;;;;;;;10.40;48.75;99150.78;4993537;28;19924;-75
2023/03/20 02:54:04;;;;;;;;;;;;;;;10.36;48.92;99154.53;4977206;28;20067;-75
2023/03/20 02:56:35;;;;;;;;;;;;;;;10.33;48.76;99150.38;4977054;28;20015;-76
2023/03/20 02:59:20;;;;;;;;;;;;;;;10.31;49.11;99150.44;5003188;28;20388;-75
2023/03/20 03:01:55;;;;;;;;;;;;;;;10.29;49.01;99147.13;5054657;28;19921;-75
2023/03/20 03:04:26;;;;;;;;;;;;;;;10.26;48.98;99147.31;5053371;28;20277;-75
2023/03/20 03:06:54;;;;;;;;;;;;;;;10.24;49.01;99149.19;5053624;28;19938;-75
2023/03/20 03:09:23;;;;;;;;;;;;;;;10.23;49.01;99144.91;5053573;28;19932;-76
2023/03/20 03:11:49;;;;;;;;;;;;;;;10.22;49.09;99143.25;5053101;28;19987;-75
2023/03/20 03:14:17;;;;;;;;;;;;;;;10.18;48.99;99136.53;5037104;28;19955;-75
2023/03/20 03:16:42;;;;;;;;;;;;;;;10.18;49.22;99135.72;5053307;28;19924;-75
2023/03/20 03:19:08;;;;;;;;;;;;;;;10.15;49.18;99141.97;5053082;28;19916;-75
2023/03/20 03:21:34;;;;;;;;;;;;;;;10.15;49.06;99136.75;5036342;28;20296;-75
2023/03/20 03:24:00;;;;;;;;;;;;;;;10.13;49.12;99131.63;5036605;28;19921;-75
2023/03/20 03:26:26;;;;;;;;;;;;;;;10.13;49.10;99133.44;5053654;28;20372;-75
2023/03/20 03:28:58;;;;;;;;;;;;;;;10.11;49.12;99130.09;5052987;28;20284;-75
2023/03/20 03:31:23;;;;;;;;;;;;;;;10.08;49.15;99132.91;5052880;28;20307;-75
2023/03/20 03:33:50;;;;;;;;;;;;;;;10.05;49.11;99136.56;5052695;28;19921;-75
2023/03/20 03:36:22;;;;;;;;;;;;;;;10.04;49.03;99134.91;5035826;28;19940;-75
2023/03/20 03:38:50;;;;;;;;;;;;;;;10.02;49.14;99138.53;5052942;28;19940;-75
2023/03/20 03:41:27;;;;;;;;;;;;;;;9.98;49.24;99134.47;5054307;28;20368;-75
2023/03/20 03:43:56;;;;;;;;;;;;;;;9.97;49.05;99128.41;5036162;28;19917;-75
2023/03/20 03:46:35;;;;;;;;;;;;;;;9.95;49.30;99123.31;5052810;28;19916;-75
2023/03/20 03:49:00;;;;;;;;;;;;;;;9.93;49.18;99125.19;5053339;28;19917;-76
2023/03/20 03:51:27;;;;;;;;;;;;;;;9.92;49.20;99130.50;5052498;28;19924;-75
2023/03/20 03:53:54;;;;;;;;;;;;;;;9.89;49.28;99130.72;5052737;28;19917;-75
2023/03/20 03:56:19;;;;;;;;;;;;;;;9.87;49.20;99136.03;5052625;28;19921;-75
2023/03/20 03:58:48;;;;;;;;;;;;;;;9.86;49.24;99131.75;5053083;28;19936;-74
2023/03/20 04:01:14;;;;;;;;;;;;;;;9.85;49.23;99137.91;5052386;28;20368;-74
2023/03/20 04:03:43;;;;;;;;;;;;;;;9.85;49.28;99145.72;5052451;28;19923;-75
2023/03/20 04:06:09;;;;;;;;;;;;;;;9.84;49.24;99146.66;5038817;28;20013;-75
2023/03/20 04:08:34;;;;;;;;;;;;;;;9.83;49.33;99144.16;5048718;28;19927;-74
2023/03/20 04:10:59;;;;;;;;;;;;;;;9.83;49.42;99150.19;5053633;28;19917;-74
2023/03/20 04:13:25;;;;;;;;;;;;;;;9.84;49.34;99148.44;5035858;28;19939;-74
2023/03/20 04:15:51;;;;;;;;;;;;;;;9.84;49.43;99149.28;5052227;28;20395;-74
2023/03/20 04:18:16;;;;;;;;;;;;;;;9.85;49.36;99161.38;5052178;28;19917;-75
2023/03/20 04:20:42;;;;;;;;;;;;;;;9.86;49.36;99150.00;5051823;28;20370;-74
2023/03/20 04:23:07;;;;;;;;;;;;;;;9.87;49.39;99158.66;5035578;28;19921;-74
2023/03/20 04:25:33;;;;;;;;;;;;;;;9.88;49.30;99153.34;5034941;28;19923;-74
2023/03/20 04:27:58;;;;;;;;;;;;;;;9.93;49.27;99155.63;5052947;28;19917;-73
2023/03/20 04:30:23;;;;;;;;;;;;;;;10.02;49.06;99151.59;5053166;28;19917;-74
2023/03/20 04:32:49;;;;;;;;;;;;;;;10.11;48.87;99153.56;5051671;28;19986;-74
2023/03/20 04:35:14;;;;;;;;;;;;;;;10.30;48.56;99160.97;5035060;28;20437;-77
2023/03/20 04:37:39;;;;;;;;;;;;;;;10.51;48.14;99161.31;5052147;28;19917;-78
2023/03/20 04:40:05;;;;;;;;;;;;;;;10.79;57.18;99156.78;5053035;28;19917;-73
2023/03/20 04:42:30;;;;;;;;;;;;;;;11.63;61.49;99160.31;5035012;28;20383;-77
2023/03/20 04:44:55;;;;;;;;;;;;;;;11.90;53.47;99153.97;5051563;28;19917;-76
2023/03/20 04:47:21;;;;;;;;;;;;;;;12.05;51.49;99168.53;5051428;28;20020;-82
2023/03/20 04:49:46;;;;;;;;;;;;;;;12.15;50.83;99157.38;5035098;28;19988;-79
2023/03/20 04:52:12;;;;;;;;;;;;;;;12.22;49.73;99158.56;5051576;28;20265;-79
2023/03/20 04:54:37;;;;;;;;;;;;;;;12.36;48.52;99165.38;5051660;28;19916;-79
2023/03/20 04:57:02;;;;;;;;;;;;;;;12.35;48.31;99156.69;5053256;28;20387;-78
2023/03/20 04:59:28;;;;;;;;;;;;;;;12.30;48.07;99159.66;5053167;28;19931;-78
2023/03/20 05:01:53;;;;;;;;;;;;;;;12.25;47.64;99166.19;5052874;28;19923;-89
2023/03/20 05:04:18;;;;;;;;;;;;;;;12.13;47.69;99170.59;5053646;28;19970;-76
2023/03/20 05:06:47;;;;;;;;;;;;;;;12.03;47.46;99172.22;5039891;28;20008;-77
2023/03/20 05:09:13;;;;;;;;;;;;;;;11.92;47.53;99173.00;5060854;28;19916;-79
2023/03/20 05:11:38;;;;;;;;;;;;;;;11.83;47.40;99174.53;5070096;28;19956;-77
2023/03/20 05:14:04;;;;;;;;;;;;;;;11.81;47.23;99175.56;5071569;28;20019;-75
2023/03/20 05:16:29;;;;;;;;;;;;;;;11.76;47.66;99178.53;5071164;28;20452;-74
2023/03/20 05:18:54;;;;;;;;;;;;;;;11.74;47.76;99176.03;5072426;28;19925;-74
2023/03/20 05:21:20;;;;;;;;;;;;;;;11.72;47.76;99180.53;5069766;28;20423;-74
2023/03/20 05:23:45;;;;;;;;;;;;;;;11.72;47.81;99183.16;5054528;28;19920;-73
2023/03/20 05:26:10;;;;;;;;;;;;;;;11.73;47.81;99183.97;5072286;28;19917;-73
2023/03/20 05:28:36;;;;;;;;;;;;;;;11.75;47.70;99184.72;5071343;28;19917;-74
2023/03/20 05:31:01;;;;;;;;;;;;;;;11.81;47.82;99183.41;5054496;28;20382;-74
2023/03/20 05:33:26;;;;;;;;;;;;;;;11.86;47.53;99176.91;5072323;28;19916;-74
2023/03/20 05:35:52;;;;;;;;;;;;;;;11.92;47.56;99179.09;5072283;28;19983;-73
2023/03/20 05:38:21;;;;;;;;;;;;;;;12.00;47.40;99186.38;5071456;28;19916;-74
2023/03/20 05:40:46;;;;;;;;;;;;;;;12.02;47.51;99189.72;5070996;28;20376;-74
2023/03/20 05:43:12;;;;;;;;;;;;;;;12.01;47.49;99190.66;5072220;28;19948;-74
2023/03/20 05:45:37;;;;;;;;;;;;;;;12.02;47.89;99188.84;5071624;28;19917;-74
2023/03/20 05:48:02;;;;;;;;;;;;;;;12.03;47.49;99191.34;5054366;28;20368;-74
2023/03/20 05:50:27;;;;;;;;;;;;;;;12.05;47.98;99184.25;5072554;28;19923;-73
2023/03/20 05:52:53;;;;;;;;;;;;;;;12.13;57.06;99181.88;5071111;28;20276;-71
2023/03/20 05:55:18;;;;;;;;;;;;;;;12.28;53.59;99185.09;5070809;28;19923;-73
2023/03/20 05:57:43;;;;;;;;;;;;;;;12.28;52.49;99184.28;5072868;28;19920;-73
2023/03/20 06:00:09;;;;;;;;;;;;;;;12.26;51.72;99183.56;5066587;28;19920;-73
2023/03/20 06:02:35;;;;;;;;;;;;;;;12.27;51.14;99172.13;5059635;28;19952;-73
2023/03/20 06:05:00;;;;;;;;;;;;;;;12.31;50.33;99168.34;5055002;28;19916;-74
2023/03/20 06:07:26;;;;;;;;;;;;;;;12.34;50.27;99170.72;5055929;28;20299;-74
2023/03/20 06:09:51;;;;;;;;;;;;;;;12.36;49.98;99171.44;5055024;28;19939;-76
2023/03/20 06:12:16;;;;;;;;;;;;;;;12.37;49.92;99165.25;5037694;28;19924;-74
2023/03/20 06:14:42;;;;;;;;;;;;;;;12.42;49.50;99164.91;5037958;28;19974;-74
2023/03/20 06:17:07;;;;;;;;;;;;;;;12.53;51.04;99161.47;5059347;28;19924;-76
2023/03/20 06:19:32;;;;;;;;;;;;;;;12.64;50.65;99170.13;5056189;28;19927;-73
2023/03/20 06:21:58;;;;;;;;;;;;;;;12.69;49.63;99166.34;5037752;28;20023;-73
2023/03/20 06:24:23;;;;;;;;;;;;;;;12.77;51.01;99164.75;5054286;28;19916;-75
2023/03/20 06:26:48;;;;;;;;;;;;;;;12.83;49.94;99169.53;5053919;28;20353;-73
2023/03/20 06:29:14;;;;;;;;;;;;;;;12.89;49.72;99164.75;5037621;28;19917;-73
2023/03/20 06:31:39;;;;;;;;;;;;;;;12.92;49.08;99162.72;5055183;28;19917;-73
2023/03/20 06:34:04;;;;;;;;;;;;;;;12.93;48.64;99167.00;5037464;28;19917;-73
2023/03/20 06:36:30;;;;;;;;;;;;;;;12.99;48.61;99173.56;5037373;28;19917;-73
2023/03/20 06:38:55;;;;;;;;;;;;;;;13.07;48.02;99171.16;5037390;28;19923;-73
2023/03/20 06:41:21;;;;;;;;;;;;;;;13.15;48.11;99176.63;5036743;28;20305;-73
2023/03/20 06:43:47;;;;;;;;;;;;;;;13.31;47.55;99178.00;5053719;28;19917;-72
2023/03/20 06:46:12;;;;;;;;;;;;;;;13.48;47.13;99176.69;5055143;28;19917;-73
2023/03/20 06:48:38;;;;;;;;;;;;;;;13.65;46.78;99180.56;5054525;28;20376;-72
2023/03/20 06:51:03;;;;;;;;;;;;;;;13.96;56.01;99170.97;5053683;28;20012;-75
2023/03/20 06:53:28;;;;;;;;;;;;;;;14.68;57.78;99182.44;5054228;28;19917;-78
2023/03/20 06:55:54;;;;;;;;;;;;;;;15.20;55.66;99177.88;5053875;28;20383;-74
2023/03/20 06:58:19;;;;;;;;;;;;;;;15.71;53.07;99173.34;5037156;28;19916;-74
2023/03/20 07:00:45;;;;;;;;;;;;;;;16.34;50.83;99164.13;5037083;28;19923;-75
2023/03/20 07:03:10;;;;;;;;;;;;;;;16.70;46.25;99169.53;5037004;28;19917;-75
2023/03/20 07:05:37;;;;;;;;;;;;;;;17.00;42.78;99162.34;5036736;28;19917;-74
2023/03/20 07:08:02;;;;;;;;;;;;;;;17.10;41.64;99164.91;5036626;28;19923;-83
2023/03/20 07:10:27;;;;;;;;;;;;;;;17.80;40.10;99169.50;5055051;28;19933;-84
2023/03/20 07:12:53;;;;;;;;;;;;;;;17.90;40.45;99168.47;5054947;28;19959;-82
2023/03/20 07:15:20;;;;;;;;;;;;;;;18.19;38.70;99163.88;5053617;28;19924;-85
2023/03/20 07:17:46;;;;;;;;;;;;;;;18.39;37.67;99154.75;5054169;28;19920;-82
2023/03/20 07:20:11;;;;;;;;;;;;;;;18.59;37.49;99157.97;5053200;28;19924;-83
2023/03/20 07:22:37;;;;;;;;;;;;;;;18.96;36.23;99159.50;5052469;28;19920;-80
2023/03/20 07:25:02;;;;;;;;;;;;;;;19.48;35.83;99155.78;5052552;28;19921;-79
2023/03/20 07:27:27;;;;;;;;;;;;;;;20.21;34.56;99156.75;5052513;28;19916;-77
2023/03/20 07:29:53;;;;;;;;;;;;;;;20.88;34.18;99157.41;5053363;28;19917;-79
2023/03/20 07:32:18;;;;;;;;;;;;;;;21.34;33.51;99160.13;5052913;28;19923;-77
2023/03/20 07:34:43;;;;;;;;;;;;;;;22.51;33.93;99158.97;5053932;28;19916;-76
2023/03/20 07:37:09;;;;;;;;;;;;;;;22.66;34.90;99148.28;5052321;28;19917;-74
2023/03/20 07:39:34;;;;;;;;;;;;;;;23.86;32.58;99152.25;5052177;28;20070;-77
2023/03/20 07:42:00;;;;;;;;;;;;;;;24.45;30.63;99147.50;5035530;28;19916;-79
2023/03/20 07:44:25;;;;;;;;;;;;;;;24.82;29.42;99154.28;5051747;28;19923;-81
2023/03/20 07:46:51;;;;;;;;;;;;;;;25.06;29.74;99150.28;5053117;28;19917;-81
2023/03/20 07:49:17;;;;;;;;;;;;;;;25.27;28.30;99143.97;5052535;28;19924;-82
2023/03/20 07:51:43;;;;;;;;;;;;;;;25.40;27.09;99143.19;5053426;28;20015;-85
2023/03/20 07:54:08;;;;;;;;;;;;;;;25.77;25.72;99140.13;5035549;28;19924;-81
2023/03/20 07:56:33;;;;;;;;;;;;;;;25.72;24.94;99137.25;5054056;28;19921;-87
2023/03/20 07:58:59;;;;;;;;;;;;;;;25.99;24.91;99138.06;5035830;28;20384;-86
2023/03/20 08:01:25;;;;;;;;;;;;;;;26.15;24.38;99137.63;5035719;28;19952;-84
2023/03/20 08:03:51;;;;;;;;;;;;;;;26.46;23.84;99135.31;5053254;28;19913;-85
2023/03/20 08:06:16;;;;;;;;;;;;;;;26.59;23.52;99134.44;5053266;28;19917;-84
2023/03/20 08:08:41;;;;;;;;;;;;;;;26.89;23.31;99137.44;5053742;28;20372;-84
2023/03/20 08:11:10;;;;;;;;;;;;;;;27.20;22.92;99133.13;5054211;28;19917;-86
2023/03/20 08:13:35;;;;;;;;;;;;;;;27.42;22.49;99141.66;5036277;28;19975;-85
2023/03/20 08:16:02;;;;;;;;;;;;;;;27.62;22.33;99133.50;5053513;28;19917;-85
2023/03/20 08:18:28;;;;;;;;;;;;;;;27.64;21.88;99133.28;5054402;28;19917;-88
2023/03/20 08:20:53;;;;;;;;;;;;;;;27.60;22.01;99130.22;4866686;28;5328453;-87
2023/03/20 08:23:19;;;;;;;;;;;;;;;27.93;21.85;99137.16;5057365;28;19970;-84
2023/03/20 08:25:50;;;;;;;;;;;;;;;27.85;21.64;99135.56;5055052;28;19921;-85
2023/03/20 08:28:16;;;;;;;;;;;;;;;27.98;21.40;99137.34;5055919;28;19924;-84
2023/03/20 08:30:42;;;;;;;;;;;;;;;28.02;21.21;99130.47;5055096;28;20358;-87
2023/03/20 08:33:09;;;;;;;;;;;;;;;28.13;21.31;99132.44;5040410;28;19916;-86
2023/03/20 08:35:37;;;;;;;;;;;;;;;28.22;21.17;99132.16;5039616;28;19939;-91
2023/03/20 08:38:03;;;;;;;;;;;;;;;28.24;21.00;99138.09;5054659;28;19917;-84
2023/03/20 08:40:30;;;;;;;;;;;;;;;28.28;20.95;99133.94;5046015;28;19901;-84
2023/03/20 08:42:55;;;;;;;;;;;;;;;28.36;21.26;99124.78;5063888;28;19916;-86
2023/03/20 08:45:24;;;;;;;;;;;;;;;28.45;20.91;99126.09;5062248;28;20000;-90
2023/03/20 08:47:52;;;;;;;;;;;;;;;28.56;20.93;99135.28;5314727;23;19908;-92
2023/03/20 08:50:21;;;;;;;;;;;;;;;28.56;20.68;99125.38;5104595;28;19916;-85
2023/03/20 08:52:51;;;;;;;;;;;;;;;28.43;20.93;99122.81;5101501;28;19967;-88
2023/03/20 08:55:18;;;;;;;;;;;;;;;28.36;20.87;99124.78;5098429;28;19920;-87
2023/03/20 08:57:44;;;;;;;;;;;;;;;28.39;20.91;99122.47;5079973;28;19916;-85
2023/03/20 09:00:11;;;;;;;;;;;;;;;28.34;20.87;99123.13;5079443;28;19959;-87
2023/03/20 09:02:38;;;;;;;;;;;;;;;28.42;20.92;99122.00;5101229;28;19927;-88
2023/03/20 09:05:05;;;;;;;;;;;;;;;28.31;21.04;99123.56;5087132;28;19946;-88
2023/03/20 09:07:30;;;;;;;;;;;;;;;28.21;21.08;99123.28;5098402;28;19969;-83
2023/03/20 09:09:56;;;;;;;;;;;;;;;28.06;21.17;99120.13;5076204;28;19924;-85
2023/03/20 09:12:21;;;;;;;;;;;;;;;28.03;21.06;99125.94;5092315;28;19967;-85
2023/03/20 09:14:46;;;;;;;;;;;;;;;28.12;21.15;99120.06;5095175;28;19926;-87
2023/03/20 09:17:12;;;;;;;;;;;;;;;27.93;21.56;99118.38;5096875;28;20019;-88
2023/03/20 09:19:43;;;;;;;;;;;;;;;27.96;21.29;99112.59;5087699;28;19923;-88
2023/03/20 09:22:30;;;;;;;;;;;;;;;27.88;21.47;99112.84;5106908;28;20005;-92
2023/03/20 09:24:56;;;;;;;;;;;;;;;27.86;21.64;99114.91;5107054;28;19938;-88
2023/03/20 09:27:23;;;;;;;;;;;;;;;27.85;21.95;99113.28;5105929;28;19916;-91
2023/03/20 09:29:49;;;;;;;;;;;;;;;27.80;21.69;99109.41;5101833;28;19917;-82
2023/03/20 09:32:15;;;;;;;;;;;;;;;27.64;21.74;99109.13;5092881;28;19954;-82
2023/03/20 09:34:42;;;;;;;;;;;;;;;27.55;21.92;99108.59;5079898;28;20003;-80
2023/03/20 09:37:08;;;;;;;;;;;;;;;27.54;22.16;99107.75;5093699;28;19969;-82
2023/03/20 09:39:34;;;;;;;;;;;;;;;27.43;22.40;99109.28;5096515;28;19923;-81
2023/03/20 09:42:07;;;;;;;;;;;;;;;27.33;22.44;99116.19;5095898;28;19916;-82
2023/03/20 09:44:37;;;;;;;;;;;;;;;27.26;22.47;99105.47;5079527;28;19916;-88
2023/03/20 09:47:07;;;;;;;;;;;;;;;27.21;22.36;99111.47;5098324;28;19978;-84
2023/03/20 09:50:01;;;;;;;;;;;;;;;27.16;22.69;99102.47;5097580;28;19916;-85
2023/03/20 09:52:37;;;;;;;;;;;;;;;26.96;22.82;99097.22;5067146;28;19974;-84
2023/03/20 09:55:06;;;;;;;;;;;;;;;26.87;23.16;99096.66;5098219;28;19916;-83
2023/03/20 09:57:42;;;;;;;;;;;;;;;26.89;23.31;99087.34;5096749;28;19923;-84
2023/03/20 10:00:10;;;;;;;;;;;;;;;26.99;23.36;99091.44;5096817;28;19916;-84
2023/03/20 10:02:42;;;;;;;;;;;;;;;26.99;23.30;99083.38;5078951;28;20026;-84
2023/03/20 10:05:16;;;;;;;;;;;;;;;26.88;23.06;99077.69;5096495;28;20375;-82
2023/03/20 10:08:02;;;;;;;;;;;;;;;26.66;23.64;99073.69;5098280;28;19923;-84
2023/03/20 10:10:35;;;;;;;;;;;;;;;26.73;23.38;99060.28;5097831;28;19920;-85
2023/03/20 10:13:14;;;;;;;;;;;;;;;26.73;23.27;99066.44;5096467;28;19920;-84
2023/03/20 10:15:47;;;;;;;;;;;;;;;26.67;23.40;99060.06;5100505;28;20430;-84
2023/03/20 10:18:17;;;;;;;;;;;;;;;26.55;23.63;99061.75;5084953;28;19916;-83
2023/03/20 10:21:03;;;;;;;;;;;;;;;26.44;23.83;99059.75;5100967;28;19924;-89
2023/03/20 10:24:10;;;;;;;;;;;;;;;26.39;23.70;99049.66;5095780;28;19920;-88
2023/03/20 10:26:37;;;;;;;;;;;;;;;26.20;24.04;99047.91;5029319;28;19918;-89
2023/03/20 10:29:37;;;;;;;;;;;;;;;26.08;24.52;99043.22;4964357;29;19923;-85
2023/03/20 10:32:07;;;;;;;;;;;;;;;25.83;24.41;99038.50;4958901;29;20326;-87
2023/03/20 10:34:50;;;;;;;;;;;;;;;25.68;24.99;99034.41;4942434;29;19918;-87
2023/03/20 10:37:36;;;;;;;;;;;;;;;25.35;25.37;99035.25;4942786;29;20119;-86
2023/03/20 10:40:07;;;;;;;;;;;;;;;25.02;25.71;99038.72;4945070;29;19919;-85
2023/03/20 10:42:33;;;;;;;;;;;;;;;24.98;25.96;99035.63;4943423;29;20014;-87
2023/03/20 10:45:05;;;;;;;;;;;;;;;24.88;25.94;99025.34;4942469;29;19934;-85
2023/03/20 10:47:32;;;;;;;;;;;;;;;24.86;26.38;99016.72;4942579;29;19950;-86
2023/03/20 10:50:00;;;;;;;;;;;;;;;24.87;26.17;99015.66;4957430;29;19965;-90
2023/03/20 10:52:27;;;;;;;;;;;;;;;24.87;26.31;99012.19;4943054;29;19919;-85
2023/03/20 10:54:54;;;;;;;;;;;;;;;24.80;26.33;99011.38;4957626;29;19930;-85
2023/03/20 10:57:40;;;;;;;;;;;;;;;24.67;26.51;98988.13;4991413;28;19980;-86
2023/03/20 11:00:13;;;;;;;;;;;;;;;24.43;26.98;98990.31;5022518;28;19917;-84
2023/03/20 11:02:38;;;;;;;;;;;;;;;24.15;27.54;98990.41;5038690;28;19917;-88
2023/03/20 11:05:42;;;;;;;;;;;;;;;24.19;27.60;98980.97;5041673;28;19916;-87
2023/03/20 11:08:08;;;;;;;;;;;;;;;24.11;27.88;98978.50;4995935;28;19957;-87
2023/03/20 11:10:34;;;;;;;;;;;;;;;24.12;27.96;98972.97;4986685;28;19933;-93
2023/03/20 11:13:21;;;;;;;;;;;;;;;24.20;27.82;98971.97;5808633;22;19919;-93
2023/03/20 11:15:50;;;;;;;;;;;;;;;24.01;27.99;98968.19;5148572;22;19947;-87
2023/03/20 11:18:15;;;;;;;;;;;;;;;23.98;28.20;98966.75;5100663;28;19930;-86
2023/03/20 11:20:53;;;;;;;;;;;;;;;24.04;28.05;98954.47;5082082;28;19916;-86
2023/03/20 11:23:20;;;;;;;;;;;;;;;24.03;28.39;98950.16;5082126;28;19923;-86
2023/03/20 11:25:54;;;;;;;;;;;;;;;24.04;28.41;98951.81;5100029;28;20362;-84
2023/03/20 11:28:20;;;;;;;;;;;;;;;24.06;28.26;98944.41;5098393;28;19916;-85
2023/03/20 11:30:45;;;;;;;;;;;;;;;23.79;28.79;98936.28;5116099;28;19922;-86
2023/03/20 11:33:11;;;;;;;;;;;;;;;23.56;29.30;98936.59;5081525;28;20060;-85
2023/03/20 11:35:37;;;;;;;;;;;;;;;23.60;28.95;98934.34;5098618;28;19923;-88
2023/03/20 11:38:13;;;;;;;;;;;;;;;23.63;28.97;98925.97;5116998;28;20025;-84
2023/03/20 11:40:39;;;;;;;;;;;;;;;23.40;29.49;98920.91;5081242;28;20002;-84
2023/03/20 11:43:25;;;;;;;;;;;;;;;23.29;29.46;98912.44;5100010;28;19959;-88
2023/03/20 11:45:56;;;;;;;;;;;;;;;23.24;29.68;98914.03;5099851;28;19985;-86
2023/03/20 11:48:23;;;;;;;;;;;;;;;23.20;29.71;98908.28;5098377;28;19923;-87
2023/03/20 11:50:50;;;;;;;;;;;;;;;23.10;30.00;98905.97;5082087;28;19955;-87
2023/03/20 11:53:21;;;;;;;;;;;;;;;22.84;30.28;98908.41;5116432;28;19916;-86
2023/03/20 11:56:07;;;;;;;;;;;;;;;22.70;30.53;98897.63;5096335;28;19916;-85
2023/03/20 11:58:33;;;;;;;;;;;;;;;22.73;30.68;98894.56;5097530;28;19951;-85
2023/03/20 12:00:58;;;;;;;;;;;;;;;22.61;30.80;98895.28;5096976;28;19962;-85
2023/03/20 12:03:33;;;;;;;;;;;;;;;22.43;31.04;98898.41;5098404;28;19999;-84
2023/03/20 12:06:00;;;;;;;;;;;;;;;22.31;31.64;98893.59;5096804;28;19916;-84
2023/03/20 12:08:34;;;;;;;;;;;;;;;22.35;31.75;98886.06;5098780;28;19919;-81
2023/03/20 12:11:02;;;;;;;;;;;;;;;22.35;31.32;98880.72;5094133;28;20375;-82
2023/03/20 12:13:28;;;;;;;;;;;;;;;22.37;31.84;98879.50;5093578;28;19916;-83
2023/03/20 12:15:58;;;;;;;;;;;;;;;22.43;31.78;98877.13;5079584;28;19919;-82
2023/03/20 12:18:25;;;;;;;;;;;;;;;22.32;32.18;98875.78;5079282;28;19916;-82
2023/03/20 12:20:50;;;;;;;;;;;;;;;22.22;32.08;98884.88;5097525;28;19923;-85
2023/03/20 12:23:48;;;;;;;;;;;;;;;22.17;32.34;98878.47;5102249;28;19915;-88
2023/03/20 12:26:21;;;;;;;;;;;;;;;22.07;32.46;98862.81;5021156;28;19977;-89
2023/03/20 12:28:51;;;;;;;;;;;;;;;22.07;32.68;98868.13;5024149;28;19921;-88
2023/03/20 12:31:25;;;;;;;;;;;;;;;22.08;32.27;98851.19;5021134;28;19917;-89
2023/03/20 12:33:51;;;;;;;;;;;;;;;22.16;32.14;98859.03;5019916;28;19923;-89
2023/03/20 12:36:17;;;;;;;;;;;;;;;22.17;32.46;98850.06;5026077;28;19948;-89
2023/03/20 12:38:44;;;;;;;;;;;;;;;22.26;32.14;98841.94;5023554;28;19918;-88
2023/03/20 12:44:31;;;;;;;;;;;;;;;21.98;32.53;98838.22;5038674;28;19956;-89
2023/03/20 12:47:31;;;;;;;;;;;;;;;21.89;32.64;98842.00;5027995;28;19977;-88
2023/03/20 12:50:13;;;;;;;;;;;;;;;21.93;32.74;98839.78;5043326;28;19928;-89
2023/03/20 12:52:58;;;;;;;;;;;;;;;21.98;32.43;98840.03;5038643;28;19916;-88
2023/03/20 12:55:32;;;;;;;;;;;;;;;21.91;32.50;98828.50;5042993;28;19921;-88
2023/03/20 12:57:57;;;;;;;;;;;;;;;21.78;33.13;98822.03;5044567;28;19921;-88